Time;durP1;ratioP1;P1;durP2;ratioP2;P2;SDS_P1;SDS_P2;PMS_P1;PMS_P2;Temp;Humidity;BMP_temperature;BMP_pressure;BME280_temperature;BME280_humidity;BME280_pressure;Samples;Min_cycle;Max_cycle;Signal;HPM_P1;HPM_P2
2022/10/30 00:00:28;;;;;;;;;;;11.80;99.90;;;;;;5089331;28;19931;-87
2022/10/30 00:02:54;;;;;;;;;;;13.40;99.90;;;;;;5090219;28;19927;-88
2022/10/30 00:05:22;;;;;;;;;;;13.70;99.90;;;;;;5086496;28;19927;-88
2022/10/30 00:07:51;;;;;;;;;;;13.50;99.90;;;;;;5077729;28;20011;-88
2022/10/30 00:10:20;;;;;;;;;;;12.70;99.90;;;;;;5079543;28;19928;-88
2022/10/30 00:12:46;;;;;;;;;;;13.80;99.90;;;;;;5079315;28;19932;-87
2022/10/30 00:15:14;;;;;;;;;;;13.60;99.90;;;;;;5080705;28;19931;-88
2022/10/30 00:17:45;;;;;;;;;;;15.10;99.90;;;;;;5078605;28;19928;-88
2022/10/30 00:20:11;;;;;;;;;;;13.30;99.90;;;;;;5078355;28;19968;-88
2022/10/30 00:22:37;;;;;;;;;;;13.60;99.90;;;;;;5079571;28;19963;-88
2022/10/30 00:25:03;;;;;;;;;;;13.60;99.90;;;;;;5074919;28;19928;-88
2022/10/30 00:27:29;;;;;;;;;;;13.20;99.90;;;;;;5074143;28;20010;-88
2022/10/30 00:29:55;;;;;;;;;;;13.40;99.90;;;;;;5072649;28;20010;-88
2022/10/30 00:32:20;;;;;;;;;;;13.30;99.90;;;;;;5080832;28;20383;-89
2022/10/30 00:34:46;;;;;;;;;;;13.20;99.90;;;;;;5083973;28;19990;-88
2022/10/30 00:37:12;;;;;;;;;;;13.20;99.90;;;;;;5099173;28;19932;-88
2022/10/30 00:39:37;;;;;;;;;;;13.20;99.90;;;;;;5074155;28;19924;-88
2022/10/30 00:42:03;;;;;;;;;;;13.30;99.90;;;;;;5094561;28;19931;-89
2022/10/30 00:44:44;;;;;;;;;;;13.20;99.90;;;;;;5094127;28;20364;-89
2022/10/30 00:47:18;;;;;;;;;;;13.10;99.90;;;;;;5076739;28;19968;-88
2022/10/30 00:49:49;;;;;;;;;;;13.40;99.90;;;;;;5086536;28;19927;-88
2022/10/30 00:52:18;;;;;;;;;;;13.10;99.90;;;;;;5099918;28;19947;-88
2022/10/30 00:54:46;;;;;;;;;;;13.20;99.90;;;;;;5075056;28;20007;-89
2022/10/30 00:57:20;;;;;;;;;;;13.20;99.90;;;;;;5097206;28;19976;-89
2022/10/30 00:59:49;;;;;;;;;;;13.40;99.90;;;;;;5090176;28;19927;-89
2022/10/30 01:02:15;;;;;;;;;;;11.70;99.90;;;;;;5083995;28;19935;-88
2022/10/30 01:04:42;;;;;;;;;;;13.10;99.90;;;;;;5096618;28;19989;-89
2022/10/30 01:07:12;;;;;;;;;;;13.20;99.90;;;;;;5092642;28;19991;-88
2022/10/30 01:09:38;;;;;;;;;;;13.30;99.90;;;;;;5092485;28;19985;-89
2022/10/30 01:12:09;;;;;;;;;;;13.40;99.90;;;;;;5091938;28;19924;-89
2022/10/30 01:14:40;;;;;;;;;;;13.20;99.90;;;;;;5081106;28;19985;-89
2022/10/30 01:17:15;;;;;;;;;;;13.40;99.90;;;;;;5081479;28;19946;-89
2022/10/30 01:19:46;;;;;;;;;;;13.30;99.90;;;;;;5082520;28;19928;-88
2022/10/30 01:22:28;;;;;;;;;;;13.20;99.90;;;;;;5077976;28;20024;-89
2022/10/30 01:25:08;;;;;;;;;;;13.10;99.90;;;;;;5086929;28;20295;-89
2022/10/30 01:27:38;;;;;;;;;;;13.00;99.90;;;;;;5079825;28;19924;-88
2022/10/30 01:30:04;;;;;;;;;;;13.20;99.90;;;;;;5076615;28;19924;-89
2022/10/30 01:32:32;;;;;;;;;;;13.10;99.90;;;;;;5092608;28;20299;-89
2022/10/30 01:35:09;;;;;;;;;;;12.90;99.90;;;;;;5075546;28;20282;-89
2022/10/30 01:37:54;;;;;;;;;;;12.90;99.90;;;;;;5092446;28;19928;-89
2022/10/30 01:40:20;;;;;;;;;;;12.90;99.90;;;;;;5070660;28;19988;-89
2022/10/30 01:43:04;;;;;;;;;;;12.90;99.90;;;;;;5075940;28;20029;-88
2022/10/30 01:45:29;;;;;;;;;;;12.10;99.90;;;;;;5073122;28;20279;-88
2022/10/30 01:48:09;;;;;;;;;;;13.30;99.90;;;;;;5094944;28;19924;-88
2022/10/30 01:50:37;;;;;;;;;;;12.90;99.90;;;;;;5078570;28;19924;-89
2022/10/30 01:53:23;;;;;;;;;;;12.90;99.90;;;;;;5096569;28;19924;-88
2022/10/30 01:55:52;;;;;;;;;;;11.70;99.90;;;;;;5112705;28;19970;-88
2022/10/30 01:58:33;;;;;;;;;;;13.00;99.90;;;;;;5104334;28;19928;-88
2022/10/30 02:00:59;;;;;;;;;;;13.30;99.90;;;;;;5079486;28;19974;-89
2022/10/30 02:03:26;;;;;;;;;;;13.00;99.90;;;;;;5075622;28;20024;-88
2022/10/30 02:05:52;;;;;;;;;;;13.00;99.90;;;;;;5085106;28;20268;-88
2022/10/30 02:08:18;;;;;;;;;;;12.90;99.90;;;;;;5099112;28;19912;-89
2022/10/30 02:10:45;;;;;;;;;;;12.90;99.90;;;;;;5102269;28;19919;-88
2022/10/30 02:13:11;;;;;;;;;;;12.80;99.90;;;;;;5081652;28;19947;-89
2022/10/30 02:15:37;;;;;;;;;;;10.90;99.90;;;;;;5102454;28;19956;-89
2022/10/30 02:18:05;;;;;;;;;;;12.90;99.90;;;;;;5095716;28;21012;-88
2022/10/30 02:20:31;;;;;;;;;;;12.90;99.90;;;;;;5088988;28;19940;-88
2022/10/30 02:22:57;;;;;;;;;;;12.10;99.90;;;;;;5080512;28;19932;-88
2022/10/30 02:25:22;;;;;;;;;;;12.70;99.90;;;;;;5095574;28;19912;-88
2022/10/30 02:27:50;;;;;;;;;;;12.60;99.90;;;;;;5101000;28;19918;-88
2022/10/30 02:30:18;;;;;;;;;;;12.10;99.90;;;;;;5091076;28;20410;-89
2022/10/30 02:32:44;;;;;;;;;;;12.80;99.90;;;;;;5059785;28;19946;-88
2022/10/30 02:35:10;;;;;;;;;;;12.70;99.90;;;;;;5076916;28;20022;-88
2022/10/30 02:37:38;;;;;;;;;;;12.60;99.90;;;;;;5076405;28;19963;-89
2022/10/30 02:40:07;;;;;;;;;;;11.00;99.90;;;;;;5093404;28;19928;-88
2022/10/30 02:42:35;;;;;;;;;;;12.60;99.90;;;;;;5071209;28;19924;-88
2022/10/30 02:45:04;;;;;;;;;;;13.10;99.90;;;;;;5075976;28;19924;-88
2022/10/30 02:47:29;;;;;;;;;;;12.60;99.90;;;;;;5076268;28;19977;-89
2022/10/30 02:49:55;;;;;;;;;;;12.90;99.90;;;;;;5075806;28;19924;-88
2022/10/30 02:52:20;;;;;;;;;;;12.70;99.90;;;;;;5075075;28;19928;-88
2022/10/30 02:54:46;;;;;;;;;;;12.90;99.90;;;;;;5075891;28;19924;-88
2022/10/30 02:57:14;;;;;;;;;;;12.70;99.90;;;;;;5076057;28;19924;-88
2022/10/30 02:59:40;;;;;;;;;;;12.60;99.90;;;;;;5076043;28;20001;-88
2022/10/30 03:02:05;;;;;;;;;;;12.70;99.90;;;;;;5070400;28;19989;-88
2022/10/30 03:04:34;;;;;;;;;;;12.60;99.90;;;;;;5067437;28;20019;-88
2022/10/30 03:06:59;;;;;;;;;;;12.60;99.90;;;;;;5072576;28;19924;-88
2022/10/30 03:09:25;;;;;;;;;;;12.80;99.90;;;;;;5074651;28;19924;-89
2022/10/30 03:11:51;;;;;;;;;;;10.50;99.90;;;;;;5075650;28;19977;-89
2022/10/30 03:14:16;;;;;;;;;;;12.50;99.90;;;;;;5074929;28;20281;-88
2022/10/30 03:16:42;;;;;;;;;;;12.80;99.90;;;;;;5071346;28;19982;-88
2022/10/30 03:19:10;;;;;;;;;;;12.80;99.90;;;;;;5081280;28;19932;-88
2022/10/30 03:21:36;;;;;;;;;;;10.90;99.90;;;;;;5071995;28;19931;-88
2022/10/30 03:24:01;;;;;;;;;;;12.60;99.90;;;;;;5070572;28;19925;-88
2022/10/30 03:26:29;;;;;;;;;;;12.50;99.90;;;;;;5055957;28;20320;-88
2022/10/30 03:28:55;;;;;;;;;;;11.60;99.90;;;;;;5077675;28;19924;-88
2022/10/30 03:31:20;;;;;;;;;;;12.70;99.90;;;;;;5075895;28;20261;-88
2022/10/30 03:33:52;;;;;;;;;;;12.40;99.90;;;;;;5075905;28;20019;-88
2022/10/30 03:36:17;;;;;;;;;;;10.80;99.90;;;;;;5074488;28;19924;-88
2022/10/30 03:38:46;;;;;;;;;;;12.40;99.90;;;;;;5078553;28;20022;-88
2022/10/30 03:41:14;;;;;;;;;;;12.40;99.90;;;;;;5076379;28;19924;-88
2022/10/30 03:43:39;;;;;;;;;;;12.40;99.90;;;;;;5074509;28;19924;-88
2022/10/30 03:46:07;;;;;;;;;;;12.40;99.90;;;;;;5094854;28;19924;-88
2022/10/30 03:48:36;;;;;;;;;;;12.40;99.90;;;;;;5085247;28;20260;-88
2022/10/30 03:51:02;;;;;;;;;;;12.60;99.90;;;;;;5075383;28;19924;-89
2022/10/30 03:53:28;;;;;;;;;;;12.50;99.90;;;;;;5087820;28;19947;-89
2022/10/30 03:55:58;;;;;;;;;;;12.50;99.90;;;;;;5104745;28;19924;-89
2022/10/30 03:58:24;;;;;;;;;;;11.10;99.90;;;;;;5086088;28;19924;-88
2022/10/30 04:00:52;;;;;;;;;;;12.50;99.90;;;;;;5092008;28;20288;-88
2022/10/30 04:03:18;;;;;;;;;;;12.30;99.90;;;;;;5077101;28;19932;-88
2022/10/30 04:05:44;;;;;;;;;;;12.40;99.90;;;;;;5082869;28;19934;-87
2022/10/30 04:08:11;;;;;;;;;;;12.30;99.90;;;;;;5078305;28;19924;-88
2022/10/30 04:10:40;;;;;;;;;;;12.80;99.90;;;;;;5079200;28;20304;-89
2022/10/30 04:13:06;;;;;;;;;;;11.10;99.90;;;;;;5080261;28;20256;-88
2022/10/30 04:15:32;;;;;;;;;;;12.40;99.90;;;;;;5079711;28;20292;-88
2022/10/30 04:17:58;;;;;;;;;;;10.10;99.90;;;;;;5085564;28;19924;-89
2022/10/30 04:20:24;;;;;;;;;;;12.40;99.90;;;;;;5101160;28;19931;-89
2022/10/30 04:22:57;;;;;;;;;;;12.30;99.90;;;;;;5078871;28;19983;-89
2022/10/30 04:25:23;;;;;;;;;;;12.20;99.90;;;;;;5082404;28;20010;-89
2022/10/30 04:27:51;;;;;;;;;;;12.20;99.90;;;;;;5075257;28;19974;-89
2022/10/30 04:30:20;;;;;;;;;;;12.50;99.90;;;;;;5085205;28;19932;-88
2022/10/30 04:32:48;;;;;;;;;;;12.60;99.90;;;;;;5084184;28;19928;-88
2022/10/30 04:35:14;;;;;;;;;;;12.20;99.90;;;;;;5083452;28;19932;-88
2022/10/30 04:37:40;;;;;;;;;;;12.20;99.90;;;;;;5065198;28;19935;-89
2022/10/30 04:40:06;;;;;;;;;;;12.20;99.90;;;;;;5078395;28;19928;-88
2022/10/30 04:42:32;;;;;;;;;;;12.30;99.90;;;;;;5077977;28;19924;-88
2022/10/30 04:44:57;;;;;;;;;;;12.80;99.90;;;;;;5075441;28;19930;-88
2022/10/30 04:47:26;;;;;;;;;;;12.60;99.90;;;;;;5095788;28;19947;-88
2022/10/30 04:49:51;;;;;;;;;;;12.50;99.90;;;;;;5067840;28;19957;-88
2022/10/30 04:52:17;;;;;;;;;;;12.20;99.90;;;;;;5072988;28;19927;-89
2022/10/30 04:54:43;;;;;;;;;;;12.20;99.90;;;;;;5080367;28;19949;-88
2022/10/30 04:57:09;;;;;;;;;;;12.20;99.90;;;;;;5074371;28;19967;-88
2022/10/30 04:59:35;;;;;;;;;;;12.40;99.90;;;;;;5075659;28;19959;-88
2022/10/30 05:02:00;;;;;;;;;;;12.40;99.90;;;;;;5080681;28;19935;-88
2022/10/30 05:04:26;;;;;;;;;;;12.20;99.90;;;;;;5099180;28;19968;-88
2022/10/30 05:06:52;;;;;;;;;;;12.10;99.90;;;;;;5118735;28;19931;-89
2022/10/30 05:09:20;;;;;;;;;;;12.00;99.90;;;;;;5103367;28;19950;-88
2022/10/30 05:11:45;;;;;;;;;;;10.30;99.90;;;;;;5084793;28;19928;-88
2022/10/30 05:14:11;;;;;;;;;;;12.00;99.90;;;;;;5097854;28;19924;-89
2022/10/30 05:16:47;;;;;;;;;;;;;;;;;;;;;
2022/10/30 05:19:13;;;;;;;;;;;12.00;99.90;;;;;;5092712;28;19924;-89
2022/10/30 05:21:38;;;;;;;;;;;11.00;99.90;;;;;;5078208;28;19985;-88
2022/10/30 05:24:04;;;;;;;;;;;12.10;99.90;;;;;;5075816;28;20284;-89
2022/10/30 05:26:32;;;;;;;;;;;11.90;99.90;;;;;;5078412;28;19928;-89
2022/10/30 05:28:58;;;;;;;;;;;12.20;99.90;;;;;;5059579;28;19924;-88
2022/10/30 05:31:24;;;;;;;;;;;11.90;99.90;;;;;;5077177;28;20002;-89
2022/10/30 05:33:52;;;;;;;;;;;11.80;99.90;;;;;;5080502;28;19939;-88
2022/10/30 05:36:18;;;;;;;;;;;11.90;99.90;;;;;;5074816;28;19924;-89
2022/10/30 05:38:46;;;;;;;;;;;12.60;99.90;;;;;;5075312;28;20271;-89
2022/10/30 05:41:17;;;;;;;;;;;12.00;99.90;;;;;;5075612;28;20372;-88
2022/10/30 05:43:46;;;;;;;;;;;11.90;99.90;;;;;;5061924;28;20015;-89
2022/10/30 05:46:14;;;;;;;;;;;11.90;99.90;;;;;;5072458;28;20474;-89
2022/10/30 05:48:39;;;;;;;;;;;11.90;99.90;;;;;;5092753;28;19924;-89
2022/10/30 05:51:07;;;;;;;;;;;11.80;99.90;;;;;;5076929;28;19931;-89
2022/10/30 05:53:33;;;;;;;;;;;11.70;99.90;;;;;;5091544;28;20285;-88
2022/10/30 05:56:03;;;;;;;;;;;14.40;99.90;;;;;;5075600;28;20327;-88
2022/10/30 05:58:29;;;;;;;;;;;12.00;99.90;;;;;;5059258;28;19924;-89
2022/10/30 06:01:03;;;;;;;;;;;11.80;99.90;;;;;;5092772;28;20058;-89
2022/10/30 06:03:29;;;;;;;;;;;11.80;99.90;;;;;;5079602;28;19931;-89
2022/10/30 06:05:57;;;;;;;;;;;12.10;99.90;;;;;;5074685;28;19924;-89
2022/10/30 06:08:22;;;;;;;;;;;11.60;99.90;;;;;;5077118;28;19924;-89
2022/10/30 06:10:48;;;;;;;;;;;11.60;99.90;;;;;;5076946;28;19924;-88
2022/10/30 06:13:14;;;;;;;;;;;11.50;99.90;;;;;;5082966;28;19928;-89
2022/10/30 06:15:42;;;;;;;;;;;10.10;99.90;;;;;;5088637;28;19935;-89
2022/10/30 06:18:07;;;;;;;;;;;11.90;99.90;;;;;;5086619;28;19962;-89
2022/10/30 06:20:33;;;;;;;;;;;11.60;99.90;;;;;;5079813;28;19931;-89
2022/10/30 06:23:00;;;;;;;;;;;11.50;99.90;;;;;;5085023;28;19924;-90
2022/10/30 06:25:26;;;;;;;;;;;11.40;99.90;;;;;;5087093;28;19925;-92
2022/10/30 06:27:52;;;;;;;;;;;9.80;99.90;;;;;;5114031;28;19912;-89
2022/10/30 06:30:28;;;;;;;;;;;;;;;;;;;;;
2022/10/30 06:33:02;;;;;;;;;;;11.40;99.90;;;;;;5115851;28;19912;-90
2022/10/30 06:35:28;;;;;;;;;;;11.60;99.90;;;;;;5106957;28;19928;-89
2022/10/30 06:37:59;;;;;;;;;;;11.80;99.90;;;;;;5098888;28;19927;-88
2022/10/30 06:40:25;;;;;;;;;;;11.90;99.90;;;;;;5109462;28;19950;-89
2022/10/30 06:42:51;;;;;;;;;;;11.50;99.90;;;;;;5112481;28;19927;-90
2022/10/30 06:45:21;;;;;;;;;;;11.70;99.90;;;;;;5120325;28;19920;-89
2022/10/30 06:47:46;;;;;;;;;;;11.50;99.90;;;;;;5064817;28;20006;-88
2022/10/30 06:50:16;;;;;;;;;;;11.50;99.90;;;;;;5083045;28;19957;-88
2022/10/30 06:52:42;;;;;;;;;;;11.40;99.90;;;;;;5081846;28;19931;-88
2022/10/30 06:55:08;;;;;;;;;;;11.40;99.90;;;;;;5090354;28;19924;-88
2022/10/30 06:57:34;;;;;;;;;;;10.20;99.90;;;;;;5074730;28;19929;-88
2022/10/30 07:00:00;;;;;;;;;;;11.50;99.90;;;;;;5081088;28;20291;-88
2022/10/30 07:02:26;;;;;;;;;;;11.40;99.90;;;;;;5082667;28;19930;-89
2022/10/30 07:04:55;;;;;;;;;;;11.80;99.90;;;;;;5077595;28;19928;-88
2022/10/30 07:07:20;;;;;;;;;;;12.30;99.90;;;;;;5074633;28;20367;-88
2022/10/30 07:09:46;;;;;;;;;;;11.40;99.90;;;;;;5093662;28;19970;-87
2022/10/30 07:12:12;;;;;;;;;;;11.40;99.90;;;;;;5082054;28;19959;-88
2022/10/30 07:14:38;;;;;;;;;;;10.00;99.90;;;;;;5091911;28;19931;-89
2022/10/30 07:17:03;;;;;;;;;;;11.50;99.90;;;;;;5080304;28;19931;-88
2022/10/30 07:19:29;;;;;;;;;;;11.80;99.90;;;;;;5079355;28;19973;-90
2022/10/30 07:21:55;;;;;;;;;;;10.00;99.90;;;;;;5095019;28;19923;-88
2022/10/30 07:24:21;;;;;;;;;;;11.70;99.90;;;;;;5058198;28;19931;-88
2022/10/30 07:26:46;;;;;;;;;;;11.60;99.90;;;;;;5074303;28;19967;-88
2022/10/30 07:29:14;;;;;;;;;;;11.70;99.90;;;;;;5075474;28;19924;-89
2022/10/30 07:31:40;;;;;;;;;;;12.10;99.90;;;;;;5071825;28;19932;-89
2022/10/30 07:34:16;;;;;;;;;;;11.80;99.90;;;;;;5058383;28;20378;-89
2022/10/30 07:36:41;;;;;;;;;;;12.30;99.90;;;;;;5078150;28;19950;-89
2022/10/30 07:39:07;;;;;;;;;;;12.00;99.90;;;;;;5083467;28;20027;-88
2022/10/30 07:41:37;;;;;;;;;;;11.80;99.90;;;;;;5083430;28;19934;-88
2022/10/30 07:44:03;;;;;;;;;;;12.20;99.90;;;;;;5095148;28;19967;-88
2022/10/30 07:46:29;;;;;;;;;;;12.40;99.90;;;;;;5084791;28;20484;-87
2022/10/30 07:48:57;;;;;;;;;;;11.90;99.90;;;;;;5107756;28;20368;-87
2022/10/30 07:51:25;;;;;;;;;;;12.00;99.90;;;;;;5065444;28;20410;-87
2022/10/30 07:53:51;;;;;;;;;;;11.90;99.90;;;;;;5090582;28;19971;-89
2022/10/30 07:56:16;;;;;;;;;;;12.10;99.90;;;;;;5080847;28;20031;-88
2022/10/30 07:58:44;;;;;;;;;;;11.90;99.90;;;;;;5078469;28;20300;-88
2022/10/30 08:01:10;;;;;;;;;;;12.00;99.90;;;;;;5080899;28;19928;-88
2022/10/30 08:03:36;;;;;;;;;;;12.30;99.90;;;;;;5085943;28;20512;-88
2022/10/30 08:06:01;;;;;;;;;;;12.70;99.90;;;;;;5088949;28;20017;-88
2022/10/30 08:08:27;;;;;;;;;;;12.10;99.90;;;;;;5074100;28;19931;-87
2022/10/30 08:10:52;;;;;;;;;;;12.30;99.90;;;;;;5083298;28;19928;-87
2022/10/30 08:13:18;;;;;;;;;;;12.70;99.90;;;;;;5085699;28;19935;-87
2022/10/30 08:15:48;;;;;;;;;;;12.10;99.90;;;;;;5062568;28;20336;-88
2022/10/30 08:18:14;;;;;;;;;;;12.40;99.90;;;;;;5078771;28;20298;-88
2022/10/30 08:20:44;;;;;;;;;;;12.50;99.90;;;;;;5055535;28;19930;-88
2022/10/30 08:23:10;;;;;;;;;;;12.60;99.90;;;;;;5076237;28;19928;-88
2022/10/30 08:25:38;;;;;;;;;;;12.90;99.90;;;;;;5077353;28;20033;-90
2022/10/30 08:28:05;;;;;;;;;;;12.70;99.90;;;;;;5081934;28;19924;-88
2022/10/30 08:30:37;;;;;;;;;;;12.70;99.90;;;;;;5075633;28;19928;-90
2022/10/30 08:33:08;;;;;;;;;;;12.80;99.90;;;;;;5097263;28;19932;-90
2022/10/30 08:35:37;;;;;;;;;;;12.60;99.90;;;;;;5079245;28;19935;-90
2022/10/30 08:38:08;;;;;;;;;;;12.80;99.90;;;;;;5081354;28;19924;-89
2022/10/30 08:40:36;;;;;;;;;;;12.90;99.90;;;;;;5058855;28;19924;-89
2022/10/30 08:43:04;;;;;;;;;;;13.00;99.90;;;;;;5074708;28;20022;-91
2022/10/30 08:45:47;;;;;;;;;;;13.30;99.90;;;;;;5075499;28;19924;-91
2022/10/30 08:48:16;;;;;;;;;;;13.10;99.90;;;;;;5062487;28;19980;-90
2022/10/30 08:50:50;;;;;;;;;;;13.30;99.90;;;;;;5074092;28;19925;-88
2022/10/30 08:53:16;;;;;;;;;;;13.50;99.90;;;;;;5074961;28;20048;-87
2022/10/30 08:55:42;;;;;;;;;;;12.70;99.90;;;;;;5086784;28;20005;-88
2022/10/30 08:58:07;;;;;;;;;;;13.40;99.90;;;;;;5056775;28;19986;-90
2022/10/30 09:00:34;;;;;;;;;;;13.50;99.90;;;;;;5078976;28;19924;-88
2022/10/30 09:03:02;;;;;;;;;;;13.50;99.90;;;;;;5072174;28;19930;-89
2022/10/30 09:05:28;;;;;;;;;;;13.50;99.90;;;;;;5080462;28;20007;-88
2022/10/30 09:07:55;;;;;;;;;;;13.60;99.90;;;;;;5063921;28;20007;-86
2022/10/30 09:10:20;;;;;;;;;;;13.70;99.90;;;;;;5085857;28;20342;-88
2022/10/30 09:12:46;;;;;;;;;;;12.10;99.90;;;;;;5083447;28;19925;-88
2022/10/30 09:15:14;;;;;;;;;;;12.70;99.90;;;;;;5075012;28;20326;-88
2022/10/30 09:17:40;;;;;;;;;;;13.80;99.90;;;;;;5075956;28;19927;-89
2022/10/30 09:20:11;;;;;;;;;;;14.00;99.90;;;;;;5081189;28;19989;-89
2022/10/30 09:22:42;;;;;;;;;;;14.00;99.90;;;;;;5080280;28;19925;-89
2022/10/30 09:25:08;;;;;;;;;;;14.40;99.90;;;;;;5080659;28;19924;-86
2022/10/30 09:27:42;;;;;;;;;;;14.30;99.90;;;;;;5080120;28;19948;-89
2022/10/30 09:30:08;;;;;;;;;;;14.20;99.90;;;;;;5100053;28;19924;-88
2022/10/30 09:32:33;;;;;;;;;;;14.30;99.90;;;;;;5083475;28;19924;-88
2022/10/30 09:35:02;;;;;;;;;;;14.40;99.90;;;;;;5074775;28;19932;-88
2022/10/30 09:37:34;;;;;;;;;;;14.60;99.90;;;;;;5078622;28;19924;-88
2022/10/30 09:40:00;;;;;;;;;;;15.10;99.90;;;;;;5078461;28;19974;-88
2022/10/30 09:42:44;;;;;;;;;;;14.70;99.90;;;;;;5086935;28;19966;-89
2022/10/30 09:45:29;;;;;;;;;;;14.90;99.90;;;;;;5081106;28;19923;-87
2022/10/30 09:48:13;;;;;;;;;;;14.90;99.90;;;;;;5085019;28;19939;-88
2022/10/30 09:51:04;;;;;;;;;;;15.00;99.90;;;;;;5075888;28;19931;-87
2022/10/30 09:53:37;;;;;;;;;;;15.10;99.90;;;;;;5094863;28;19924;-88
2022/10/30 09:56:03;;;;;;;;;;;15.30;99.90;;;;;;5091651;28;20470;-87
2022/10/30 09:58:28;;;;;;;;;;;15.40;99.90;;;;;;5072829;28;20007;-86
2022/10/30 10:01:00;;;;;;;;;;;15.40;99.90;;;;;;5075615;28;19924;-86
2022/10/30 10:03:52;;;;;;;;;;;15.40;99.90;;;;;;5075258;28;19936;-86
2022/10/30 10:06:19;;;;;;;;;;;15.50;99.90;;;;;;5069210;28;19931;-85
2022/10/30 10:08:53;;;;;;;;;;;15.60;99.90;;;;;;5075393;28;20015;-86
2022/10/30 10:11:25;;;;;;;;;;;15.70;99.90;;;;;;5079475;28;19924;-86
2022/10/30 10:13:55;;;;;;;;;;;15.80;99.90;;;;;;5076735;28;20019;-86
2022/10/30 10:16:27;;;;;;;;;;;15.90;99.90;;;;;;5095471;28;19928;-87
2022/10/30 10:19:00;;;;;;;;;;;15.90;99.90;;;;;;5075861;28;19924;-87
2022/10/30 10:21:26;;;;;;;;;;;16.00;99.90;;;;;;5085186;28;19931;-86
2022/10/30 10:23:57;;;;;;;;;;;16.00;99.90;;;;;;5076148;28;19924;-85
2022/10/30 10:26:29;;;;;;;;;;;16.10;99.90;;;;;;5076993;28;19932;-86
2022/10/30 10:29:05;;;;;;;;;;;16.20;99.90;;;;;;5073230;28;19974;-88
2022/10/30 10:31:49;;;;;;;;;;;16.20;99.90;;;;;;5083633;28;20020;-87
2022/10/30 10:34:31;;;;;;;;;;;15.60;99.90;;;;;;5079403;28;19924;-87
2022/10/30 10:37:15;;;;;;;;;;;16.40;99.90;;;;;;5081831;28;19936;-88
2022/10/30 10:39:44;;;;;;;;;;;16.60;99.90;;;;;;5099496;28;19938;-88
2022/10/30 10:42:12;;;;;;;;;;;16.60;99.90;;;;;;5107373;28;19919;-87
2022/10/30 10:45:17;;;;;;;;;;;16.70;99.90;;;;;;5102247;28;19928;-88
2022/10/30 10:47:55;;;;;;;;;;;16.80;99.90;;;;;;5042724;28;19913;-88
2022/10/30 10:50:24;;;;;;;;;;;16.90;99.90;;;;;;5044348;28;19951;-90
2022/10/30 10:53:22;;;;;;;;;;;17.00;99.90;;;;;;5059982;28;20185;-88
2022/10/30 10:55:49;;;;;;;;;;;17.00;99.90;;;;;;5045727;28;19924;-86
2022/10/30 10:58:28;;;;;;;;;;;17.00;99.90;;;;;;5127374;28;19931;-86
2022/10/30 11:00:55;;;;;;;;;;;17.00;99.90;;;;;;5085326;28;19924;-86
2022/10/30 11:03:23;;;;;;;;;;;17.10;99.90;;;;;;5092368;28;19927;-86
2022/10/30 11:05:57;;;;;;;;;;;17.10;99.90;;;;;;5080628;28;20386;-86
2022/10/30 11:08:27;;;;;;;;;;;17.20;99.90;;;;;;5089538;28;19928;-86
2022/10/30 11:10:57;;;;;;;;;;;17.40;99.90;;;;;;5076463;28;19924;-86
2022/10/30 11:13:49;;;;;;;;;;;17.50;99.90;;;;;;5080251;28;19923;-87
2022/10/30 11:16:15;;;;;;;;;;;17.70;99.90;;;;;;5072032;28;20019;-87
2022/10/30 11:18:47;;;;;;;;;;;17.90;99.90;;;;;;5077840;28;20435;-86
2022/10/30 11:21:20;;;;;;;;;;;18.00;99.90;;;;;;5071371;28;19934;-87
2022/10/30 11:23:47;;;;;;;;;;;18.10;99.90;;;;;;5070212;28;19977;-86
2022/10/30 11:26:15;;;;;;;;;;;18.20;99.90;;;;;;5076135;28;20034;-87
2022/10/30 11:29:02;;;;;;;;;;;18.30;99.90;;;;;;5094394;28;20314;-86
2022/10/30 11:31:33;;;;;;;;;;;18.40;99.90;;;;;;5071462;28;19928;-86
2022/10/30 11:34:11;;;;;;;;;;;18.50;99.90;;;;;;5080029;28;20364;-86
2022/10/30 11:36:37;;;;;;;;;;;18.50;99.90;;;;;;5073538;28;19936;-85
2022/10/30 11:39:08;;;;;;;;;;;18.60;99.90;;;;;;5092452;28;19925;-85
2022/10/30 11:41:34;;;;;;;;;;;18.60;99.90;;;;;;5072489;28;19958;-85
2022/10/30 11:43:59;;;;;;;;;;;18.60;99.90;;;;;;5077313;28;19924;-86
2022/10/30 11:46:25;;;;;;;;;;;18.60;99.90;;;;;;5091366;28;19925;-86
2022/10/30 11:48:53;;;;;;;;;;;18.70;99.90;;;;;;5082284;28;19938;-88
2022/10/30 11:51:30;;;;;;;;;;;18.70;99.90;;;;;;5071675;28;19924;-89
2022/10/30 11:54:03;;;;;;;;;;;18.70;99.90;;;;;;5074602;28;20017;-89
2022/10/30 11:56:30;;;;;;;;;;;19.40;99.90;;;;;;5075287;28;19924;-87
2022/10/30 11:58:57;;;;;;;;;;;18.70;99.90;;;;;;5074757;28;19955;-87
2022/10/30 12:01:31;;;;;;;;;;;18.60;99.90;;;;;;5073659;28;19925;-87
2022/10/30 12:04:11;;;;;;;;;;;17.60;99.90;;;;;;5092770;28;20014;-87
2022/10/30 12:06:39;;;;;;;;;;;18.50;99.90;;;;;;5077893;28;19957;-87
2022/10/30 12:09:21;;;;;;;;;;;18.50;99.90;;;;;;5070254;28;19932;-86
2022/10/30 12:11:47;;;;;;;;;;;18.60;99.90;;;;;;5091063;28;19935;-86
2022/10/30 12:14:17;;;;;;;;;;;18.60;99.90;;;;;;5080400;28;20006;-86
2022/10/30 12:16:44;;;;;;;;;;;18.60;99.90;;;;;;5077490;28;19924;-87
2022/10/30 12:19:14;;;;;;;;;;;18.80;99.90;;;;;;5071256;28;19925;-87
2022/10/30 12:21:42;;;;;;;;;;;17.80;99.90;;;;;;5076438;28;19923;-86
2022/10/30 12:24:14;;;;;;;;;;;18.80;99.90;;;;;;5078538;28;20287;-85
2022/10/30 12:26:39;;;;;;;;;;;18.80;99.90;;;;;;5083005;28;19975;-86
2022/10/30 12:29:07;;;;;;;;;;;18.70;99.90;;;;;;5088001;28;19989;-85
2022/10/30 12:31:37;;;;;;;;;;;18.70;99.90;;;;;;5072805;28;20353;-86
2022/10/30 12:34:02;;;;;;;;;;;18.80;99.90;;;;;;5088756;28;20015;-85
2022/10/30 12:36:32;;;;;;;;;;;18.80;99.90;;;;;;5084894;28;20018;-85
2022/10/30 12:39:03;;;;;;;;;;;18.80;99.90;;;;;;5094975;28;20330;-86
2022/10/30 12:41:41;;;;;;;;;;;18.80;99.90;;;;;;5094374;28;19924;-85
2022/10/30 12:44:06;;;;;;;;;;;18.80;99.90;;;;;;5079612;28;20022;-85
2022/10/30 12:46:45;;;;;;;;;;;18.80;99.90;;;;;;5073032;28;20011;-85
2022/10/30 12:49:30;;;;;;;;;;;18.70;99.90;;;;;;5079072;28;20014;-85
2022/10/30 12:51:55;;;;;;;;;;;18.70;99.90;;;;;;5073384;28;20398;-85
2022/10/30 12:54:40;;;;;;;;;;;18.70;99.90;;;;;;5093207;28;19963;-85
2022/10/30 12:57:14;;;;;;;;;;;18.60;99.90;;;;;;5071954;28;19971;-86
2022/10/30 12:59:46;;;;;;;;;;;18.60;99.90;;;;;;5099949;28;20334;-86
2022/10/30 13:02:18;;;;;;;;;;;18.60;99.90;;;;;;5082466;28;19924;-86
2022/10/30 13:04:47;;;;;;;;;;;18.70;99.90;;;;;;5076628;28;19924;-85
2022/10/30 13:07:17;;;;;;;;;;;18.70;99.90;;;;;;5089879;28;19924;-85
2022/10/30 13:09:48;;;;;;;;;;;18.70;99.90;;;;;;5078763;28;19967;-86
2022/10/30 13:12:20;;;;;;;;;;;18.80;99.90;;;;;;5094223;28;19963;-86
2022/10/30 13:14:57;;;;;;;;;;;18.80;99.90;;;;;;5079660;28;19924;-85
2022/10/30 13:17:22;;;;;;;;;;;18.80;99.90;;;;;;5102519;28;20260;-87
2022/10/30 13:19:49;;;;;;;;;;;18.80;99.90;;;;;;5076401;28;19924;-87
2022/10/30 13:22:19;;;;;;;;;;;18.80;99.90;;;;;;5067393;28;19924;-87
2022/10/30 13:25:17;;;;;;;;;;;18.80;99.90;;;;;;5098549;28;19939;-87
2022/10/30 13:27:42;;;;;;;;;;;18.80;99.90;;;;;;5048265;28;20010;-87
2022/10/30 13:30:13;;;;;;;;;;;18.80;99.90;;;;;;5078356;28;20474;-88
2022/10/30 13:32:50;;;;;;;;;;;18.90;99.90;;;;;;5078541;28;19955;-87
2022/10/30 13:35:26;;;;;;;;;;;18.90;99.90;;;;;;5091870;28;19924;-88
2022/10/30 13:38:03;;;;;;;;;;;18.90;99.90;;;;;;5074572;28;19932;-88
2022/10/30 13:40:29;;;;;;;;;;;19.00;99.90;;;;;;5077299;28;19924;-87
2022/10/30 13:43:04;;;;;;;;;;;19.00;99.90;;;;;;5081463;28;20382;-87
2022/10/30 13:45:48;;;;;;;;;;;18.00;99.90;;;;;;5079008;28;19924;-87
2022/10/30 13:48:14;;;;;;;;;;;19.00;99.90;;;;;;5092431;28;20287;-89
2022/10/30 13:50:43;;;;;;;;;;;19.00;99.90;;;;;;5080334;28;19929;-88
2022/10/30 13:53:18;;;;;;;;;;;19.00;99.90;;;;;;5072381;28;19974;-89
2022/10/30 13:55:44;;;;;;;;;;;19.00;99.90;;;;;;5075929;28;19978;-89
2022/10/30 13:58:25;;;;;;;;;;;18.90;99.90;;;;;;5090449;28;19928;-88
2022/10/30 14:00:57;;;;;;;;;;;18.90;99.90;;;;;;5083153;28;19928;-87
2022/10/30 14:03:30;;;;;;;;;;;18.80;99.90;;;;;;5095667;28;19931;-87
2022/10/30 14:06:09;;;;;;;;;;;18.80;99.90;;;;;;5081559;28;19959;-87
2022/10/30 14:08:34;;;;;;;;;;;18.80;99.90;;;;;;5085112;28;20273;-87
2022/10/30 14:11:00;;;;;;;;;;;18.80;99.90;;;;;;5068510;28;20057;-87
2022/10/30 14:13:29;;;;;;;;;;;18.70;99.90;;;;;;5092462;28;19924;-88
2022/10/30 14:15:58;;;;;;;;;;;18.70;99.90;;;;;;5097881;28;20007;-87
2022/10/30 14:18:28;;;;;;;;;;;18.70;99.90;;;;;;5076489;28;19924;-88
2022/10/30 14:20:55;;;;;;;;;;;18.60;99.90;;;;;;5075013;28;19936;-88
2022/10/30 14:23:34;;;;;;;;;;;18.60;99.90;;;;;;5079767;28;19970;-88
2022/10/30 14:26:03;;;;;;;;;;;18.70;99.90;;;;;;5097234;28;20015;-87
2022/10/30 14:28:29;;;;;;;;;;;18.50;99.90;;;;;;5075878;28;19930;-87
2022/10/30 14:31:04;;;;;;;;;;;18.50;99.90;;;;;;5067434;28;19932;-87